sensor_id;sensor_type;location;lat;lon;timestamp;temperature;humidity
50586;DHT22;36542;51.700;8.846;2023-07-13T00:01:50;16.30;99.90
50586;DHT22;36542;51.700;8.846;2023-07-13T00:04:19;16.20;99.90
50586;DHT22;36542;51.700;8.846;2023-07-13T00:06:46;16.10;99.90
50586;DHT22;36542;51.700;8.846;2023-07-13T00:09:16;16.10;99.90
50586;DHT22;36542;51.700;8.846;2023-07-13T00:11:43;16.00;99.90
50586;DHT22;36542;51.700;8.846;2023-07-13T00:14:10;16.00;99.90
50586;DHT22;36542;51.700;8.846;2023-07-13T00:16:37;16.00;99.90
50586;DHT22;36542;51.700;8.846;2023-07-13T00:19:03;16.00;99.90
50586;DHT22;36542;51.700;8.846;2023-07-13T00:21:29;16.00;99.90
50586;DHT22;36542;51.700;8.846;2023-07-13T00:23:54;16.00;99.90
50586;DHT22;36542;51.700;8.846;2023-07-13T00:26:20;16.00;99.90
50586;DHT22;36542;51.700;8.846;2023-07-13T00:28:46;16.00;99.90
50586;DHT22;36542;51.700;8.846;2023-07-13T00:31:12;16.10;99.90
50586;DHT22;36542;51.700;8.846;2023-07-13T00:33:40;16.00;99.90
50586;DHT22;36542;51.700;8.846;2023-07-13T00:36:05;16.00;99.90
50586;DHT22;36542;51.700;8.846;2023-07-13T00:38:31;15.90;99.90
50586;DHT22;36542;51.700;8.846;2023-07-13T00:40:57;15.80;99.90
50586;DHT22;36542;51.700;8.846;2023-07-13T00:43:25;15.70;99.90
50586;DHT22;36542;51.700;8.846;2023-07-13T00:48:29;15.60;99.90
50586;DHT22;36542;51.700;8.846;2023-07-13T00:50:58;15.60;99.90
50586;DHT22;36542;51.700;8.846;2023-07-13T00:53:27;15.50;99.90
50586;DHT22;36542;51.700;8.846;2023-07-13T00:55:55;15.40;99.90
50586;DHT22;36542;51.700;8.846;2023-07-13T00:58:21;15.40;99.90
50586;DHT22;36542;51.700;8.846;2023-07-13T01:00:47;15.30;99.90
50586;DHT22;36542;51.700;8.846;2023-07-13T01:03:14;15.30;99.90
50586;DHT22;36542;51.700;8.846;2023-07-13T01:05:40;15.20;99.90
50586;DHT22;36542;51.700;8.846;2023-07-13T01:08:06;15.20;99.90
50586;DHT22;36542;51.700;8.846;2023-07-13T01:10:31;15.20;99.90
50586;DHT22;36542;51.700;8.846;2023-07-13T01:13:08;15.10;99.90
50586;DHT22;36542;51.700;8.846;2023-07-13T01:15:44;15.20;99.90
50586;DHT22;36542;51.700;8.846;2023-07-13T01:18:22;15.10;99.90
50586;DHT22;36542;51.700;8.846;2023-07-13T01:21:01;15.10;99.90
50586;DHT22;36542;51.700;8.846;2023-07-13T01:23:28;15.10;99.90
50586;DHT22;36542;51.700;8.846;2023-07-13T01:25:54;15.10;99.90
50586;DHT22;36542;51.700;8.846;2023-07-13T01:28:21;15.10;99.90
50586;DHT22;36542;51.700;8.846;2023-07-13T01:30:47;15.00;99.90
50586;DHT22;36542;51.700;8.846;2023-07-13T01:33:14;15.00;99.90
50586;DHT22;36542;51.700;8.846;2023-07-13T01:35:40;15.00;99.90
50586;DHT22;36542;51.700;8.846;2023-07-13T01:38:06;15.10;99.90
50586;DHT22;36542;51.700;8.846;2023-07-13T01:40:34;15.00;99.90
50586;DHT22;36542;51.700;8.846;2023-07-13T01:43:00;15.00;99.90
50586;DHT22;36542;51.700;8.846;2023-07-13T01:45:26;15.00;99.90
50586;DHT22;36542;51.700;8.846;2023-07-13T01:47:51;14.90;99.90
50586;DHT22;36542;51.700;8.846;2023-07-13T01:50:17;14.90;99.90
50586;DHT22;36542;51.700;8.846;2023-07-13T01:52:43;14.90;99.90
50586;DHT22;36542;51.700;8.846;2023-07-13T01:55:08;15.00;99.90
50586;DHT22;36542;51.700;8.846;2023-07-13T01:57:34;15.00;99.90
50586;DHT22;36542;51.700;8.846;2023-07-13T02:00:02;15.00;99.90
50586;DHT22;36542;51.700;8.846;2023-07-13T02:02:28;15.00;99.90
50586;DHT22;36542;51.700;8.846;2023-07-13T02:04:53;15.00;99.90
50586;DHT22;36542;51.700;8.846;2023-07-13T02:07:19;14.90;99.90
50586;DHT22;36542;51.700;8.846;2023-07-13T02:09:44;14.90;99.90
50586;DHT22;36542;51.700;8.846;2023-07-13T02:12:10;14.90;99.90
50586;DHT22;36542;51.700;8.846;2023-07-13T02:14:35;14.90;99.90
50586;DHT22;36542;51.700;8.846;2023-07-13T02:17:01;14.80;99.90
50586;DHT22;36542;51.700;8.846;2023-07-13T02:19:26;14.80;99.90
50586;DHT22;36542;51.700;8.846;2023-07-13T02:21:52;14.80;99.90
50586;DHT22;36542;51.700;8.846;2023-07-13T02:24:17;14.70;99.90
50586;DHT22;36542;51.700;8.846;2023-07-13T02:26:44;14.70;99.90
50586;DHT22;36542;51.700;8.846;2023-07-13T02:29:10;14.70;99.90
50586;DHT22;36542;51.700;8.846;2023-07-13T02:31:36;14.70;99.90
50586;DHT22;36542;51.700;8.846;2023-07-13T02:34:02;14.70;99.90
50586;DHT22;36542;51.700;8.846;2023-07-13T02:36:29;14.70;99.90
50586;DHT22;36542;51.700;8.846;2023-07-13T02:38:55;14.70;99.90
50586;DHT22;36542;51.700;8.846;2023-07-13T02:41:20;14.60;99.90
50586;DHT22;36542;51.700;8.846;2023-07-13T02:43:46;14.60;99.90
50586;DHT22;36542;51.700;8.846;2023-07-13T02:46:11;14.50;99.90
50586;DHT22;36542;51.700;8.846;2023-07-13T02:48:38;14.50;99.90
50586;DHT22;36542;51.700;8.846;2023-07-13T02:51:04;14.50;99.90
50586;DHT22;36542;51.700;8.846;2023-07-13T02:53:30;14.40;99.90
50586;DHT22;36542;51.700;8.846;2023-07-13T02:55:55;14.40;99.90
50586;DHT22;36542;51.700;8.846;2023-07-13T02:58:21;14.40;99.90
50586;DHT22;36542;51.700;8.846;2023-07-13T03:00:48;14.30;99.90
50586;DHT22;36542;51.700;8.846;2023-07-13T03:03:15;14.30;99.90
50586;DHT22;36542;51.700;8.846;2023-07-13T03:05:43;14.30;99.90
50586;DHT22;36542;51.700;8.846;2023-07-13T03:08:11;14.20;99.90
50586;DHT22;36542;51.700;8.846;2023-07-13T03:10:37;14.20;99.90
50586;DHT22;36542;51.700;8.846;2023-07-13T03:13:04;14.20;99.90
50586;DHT22;36542;51.700;8.846;2023-07-13T03:15:30;14.20;99.90
50586;DHT22;36542;51.700;8.846;2023-07-13T03:17:55;14.20;99.90
50586;DHT22;36542;51.700;8.846;2023-07-13T03:20:21;14.20;99.90
50586;DHT22;36542;51.700;8.846;2023-07-13T03:22:46;14.20;99.90
50586;DHT22;36542;51.700;8.846;2023-07-13T03:25:12;14.10;99.90
50586;DHT22;36542;51.700;8.846;2023-07-13T03:27:38;14.20;99.90
50586;DHT22;36542;51.700;8.846;2023-07-13T03:30:07;14.20;99.90
50586;DHT22;36542;51.700;8.846;2023-07-13T03:32:33;14.20;99.90
50586;DHT22;36542;51.700;8.846;2023-07-13T03:34:58;14.40;99.90
50586;DHT22;36542;51.700;8.846;2023-07-13T03:37:24;14.50;99.90
50586;DHT22;36542;51.700;8.846;2023-07-13T03:39:49;14.50;99.90
50586;DHT22;36542;51.700;8.846;2023-07-13T03:42:15;14.60;99.90
50586;DHT22;36542;51.700;8.846;2023-07-13T03:44:41;14.60;99.90
50586;DHT22;36542;51.700;8.846;2023-07-13T03:47:07;14.70;99.90
50586;DHT22;36542;51.700;8.846;2023-07-13T03:49:34;14.70;99.90
50586;DHT22;36542;51.700;8.846;2023-07-13T03:52:00;14.70;99.90
50586;DHT22;36542;51.700;8.846;2023-07-13T03:54:25;14.60;99.90
50586;DHT22;36542;51.700;8.846;2023-07-13T03:56:51;14.60;99.90
50586;DHT22;36542;51.700;8.846;2023-07-13T03:59:17;14.60;99.90
50586;DHT22;36542;51.700;8.846;2023-07-13T04:01:43;14.60;99.90
50586;DHT22;36542;51.700;8.846;2023-07-13T04:04:08;14.60;99.90
50586;DHT22;36542;51.700;8.846;2023-07-13T04:06:34;14.70;99.90
50586;DHT22;36542;51.700;8.846;2023-07-13T04:09:02;14.70;99.90
50586;DHT22;36542;51.700;8.846;2023-07-13T04:11:30;14.80;99.90
50586;DHT22;36542;51.700;8.846;2023-07-13T04:13:57;14.80;99.90
50586;DHT22;36542;51.700;8.846;2023-07-13T04:16:22;14.90;99.90
50586;DHT22;36542;51.700;8.846;2023-07-13T04:18:49;14.90;99.90
50586;DHT22;36542;51.700;8.846;2023-07-13T04:21:15;14.90;99.90
50586;DHT22;36542;51.700;8.846;2023-07-13T04:23:41;15.00;99.90
50586;DHT22;36542;51.700;8.846;2023-07-13T04:26:07;15.00;99.90
50586;DHT22;36542;51.700;8.846;2023-07-13T04:28:33;15.00;99.90
50586;DHT22;36542;51.700;8.846;2023-07-13T04:30:58;15.10;99.90
50586;DHT22;36542;51.700;8.846;2023-07-13T04:33:26;15.20;99.90
50586;DHT22;36542;51.700;8.846;2023-07-13T04:35:53;15.20;99.90
50586;DHT22;36542;51.700;8.846;2023-07-13T04:38:25;15.20;99.90
50586;DHT22;36542;51.700;8.846;2023-07-13T04:40:54;15.30;99.90
50586;DHT22;36542;51.700;8.846;2023-07-13T04:43:20;15.30;99.90
50586;DHT22;36542;51.700;8.846;2023-07-13T04:45:45;15.30;99.90
50586;DHT22;36542;51.700;8.846;2023-07-13T04:48:11;15.40;99.90
50586;DHT22;36542;51.700;8.846;2023-07-13T04:50:37;15.50;99.90
50586;DHT22;36542;51.700;8.846;2023-07-13T04:53:02;15.60;99.90
50586;DHT22;36542;51.700;8.846;2023-07-13T04:55:29;15.60;99.90
50586;DHT22;36542;51.700;8.846;2023-07-13T04:57:56;15.70;99.90
50586;DHT22;36542;51.700;8.846;2023-07-13T05:00:24;15.70;99.90
50586;DHT22;36542;51.700;8.846;2023-07-13T05:02:49;15.80;99.90
50586;DHT22;36542;51.700;8.846;2023-07-13T05:05:15;15.90;99.90
50586;DHT22;36542;51.700;8.846;2023-07-13T05:07:40;15.90;99.90
50586;DHT22;36542;51.700;8.846;2023-07-13T05:10:06;16.00;99.90
50586;DHT22;36542;51.700;8.846;2023-07-13T05:12:32;16.10;99.90
50586;DHT22;36542;51.700;8.846;2023-07-13T05:14:58;16.20;99.90
50586;DHT22;36542;51.700;8.846;2023-07-13T05:17:23;16.20;99.90
50586;DHT22;36542;51.700;8.846;2023-07-13T05:19:49;16.20;99.90
50586;DHT22;36542;51.700;8.846;2023-07-13T05:22:14;16.20;99.90
50586;DHT22;36542;51.700;8.846;2023-07-13T05:24:40;16.30;99.90
50586;DHT22;36542;51.700;8.846;2023-07-13T05:27:06;16.40;99.90
50586;DHT22;36542;51.700;8.846;2023-07-13T05:29:31;16.60;99.90
50586;DHT22;36542;51.700;8.846;2023-07-13T05:31:57;16.50;99.90
50586;DHT22;36542;51.700;8.846;2023-07-13T05:37:39;17.70;99.90
50586;DHT22;36542;51.700;8.846;2023-07-13T05:40:05;19.30;99.90
50586;DHT22;36542;51.700;8.846;2023-07-13T05:42:31;20.50;99.90
50586;DHT22;36542;51.700;8.846;2023-07-13T05:44:57;20.90;99.90
50586;DHT22;36542;51.700;8.846;2023-07-13T05:47:22;21.70;99.90
50586;DHT22;36542;51.700;8.846;2023-07-13T05:49:48;22.40;99.90
50586;DHT22;36542;51.700;8.846;2023-07-13T05:52:13;22.80;99.90
50586;DHT22;36542;51.700;8.846;2023-07-13T05:54:39;22.50;99.90
50586;DHT22;36542;51.700;8.846;2023-07-13T05:57:04;22.40;99.90
50586;DHT22;36542;51.700;8.846;2023-07-13T05:59:30;22.50;99.90
50586;DHT22;36542;51.700;8.846;2023-07-13T06:01:56;22.50;99.90
50586;DHT22;36542;51.700;8.846;2023-07-13T06:04:21;22.50;99.90
50586;DHT22;36542;51.700;8.846;2023-07-13T06:06:48;22.80;99.90
50586;DHT22;36542;51.700;8.846;2023-07-13T06:09:13;22.70;99.90
50586;DHT22;36542;51.700;8.846;2023-07-13T06:11:39;22.40;99.90
50586;DHT22;36542;51.700;8.846;2023-07-13T06:14:04;22.80;99.90
50586;DHT22;36542;51.700;8.846;2023-07-13T06:16:30;23.70;99.90
50586;DHT22;36542;51.700;8.846;2023-07-13T06:18:55;24.20;99.90
50586;DHT22;36542;51.700;8.846;2023-07-13T06:21:22;24.60;99.80
50586;DHT22;36542;51.700;8.846;2023-07-13T06:23:50;23.80;99.50
50586;DHT22;36542;51.700;8.846;2023-07-13T06:26:16;23.00;99.90
50586;DHT22;36542;51.700;8.846;2023-07-13T06:28:43;22.80;99.90
50586;DHT22;36542;51.700;8.846;2023-07-13T06:31:10;22.70;99.90
50586;DHT22;36542;51.700;8.846;2023-07-13T06:33:37;22.20;99.90
50586;DHT22;36542;51.700;8.846;2023-07-13T06:36:03;21.50;99.90
50586;DHT22;36542;51.700;8.846;2023-07-13T06:38:30;21.50;99.90
50586;DHT22;36542;51.700;8.846;2023-07-13T06:40:55;21.00;99.90
50586;DHT22;36542;51.700;8.846;2023-07-13T06:43:21;20.80;99.90
50586;DHT22;36542;51.700;8.846;2023-07-13T06:45:47;20.50;99.90
50586;DHT22;36542;51.700;8.846;2023-07-13T06:48:15;21.10;99.90
50586;DHT22;36542;51.700;8.846;2023-07-13T06:50:42;21.60;99.90
50586;DHT22;36542;51.700;8.846;2023-07-13T06:53:08;22.40;99.90
50586;DHT22;36542;51.700;8.846;2023-07-13T06:55:33;22.80;99.90
50586;DHT22;36542;51.700;8.846;2023-07-13T06:57:59;22.00;99.90
50586;DHT22;36542;51.700;8.846;2023-07-13T07:00:25;21.70;99.90
50586;DHT22;36542;51.700;8.846;2023-07-13T07:02:50;21.80;99.90
50586;DHT22;36542;51.700;8.846;2023-07-13T07:05:16;21.60;99.90
50586;DHT22;36542;51.700;8.846;2023-07-13T07:07:42;21.40;99.90
50586;DHT22;36542;51.700;8.846;2023-07-13T07:10:07;21.00;99.90
50586;DHT22;36542;51.700;8.846;2023-07-13T07:12:33;20.40;99.90
50586;DHT22;36542;51.700;8.846;2023-07-13T07:14:59;20.00;99.90
50586;DHT22;36542;51.700;8.846;2023-07-13T07:17:24;19.80;99.90
50586;DHT22;36542;51.700;8.846;2023-07-13T07:19:51;19.80;99.90
50586;DHT22;36542;51.700;8.846;2023-07-13T07:22:19;19.90;99.90
50586;DHT22;36542;51.700;8.846;2023-07-13T07:24:45;19.90;99.90
50586;DHT22;36542;51.700;8.846;2023-07-13T07:27:10;20.20;99.90
50586;DHT22;36542;51.700;8.846;2023-07-13T07:29:36;20.50;99.90
50586;DHT22;36542;51.700;8.846;2023-07-13T07:32:01;21.40;99.90
50586;DHT22;36542;51.700;8.846;2023-07-13T07:34:27;21.60;99.90
50586;DHT22;36542;51.700;8.846;2023-07-13T07:36:53;21.80;99.90
50586;DHT22;36542;51.700;8.846;2023-07-13T07:39:19;22.20;99.90
50586;DHT22;36542;51.700;8.846;2023-07-13T07:41:44;21.80;99.90
50586;DHT22;36542;51.700;8.846;2023-07-13T07:44:10;22.00;99.90
50586;DHT22;36542;51.700;8.846;2023-07-13T07:46:36;22.10;99.90
50586;DHT22;36542;51.700;8.846;2023-07-13T07:49:01;21.70;99.90
50586;DHT22;36542;51.700;8.846;2023-07-13T07:51:27;21.30;99.90
50586;DHT22;36542;51.700;8.846;2023-07-13T07:53:54;20.70;99.90
50586;DHT22;36542;51.700;8.846;2023-07-13T07:56:19;20.40;99.90
50586;DHT22;36542;51.700;8.846;2023-07-13T07:58:45;20.40;99.90
50586;DHT22;36542;51.700;8.846;2023-07-13T08:01:10;20.50;99.90
50586;DHT22;36542;51.700;8.846;2023-07-13T08:03:36;20.60;99.90
50586;DHT22;36542;51.700;8.846;2023-07-13T08:06:02;20.80;99.90
50586;DHT22;36542;51.700;8.846;2023-07-13T08:08:27;21.00;99.90
50586;DHT22;36542;51.700;8.846;2023-07-13T08:10:53;21.20;99.90
50586;DHT22;36542;51.700;8.846;2023-07-13T08:13:19;21.90;99.90
50586;DHT22;36542;51.700;8.846;2023-07-13T08:15:44;22.70;99.90
50586;DHT22;36542;51.700;8.846;2023-07-13T08:18:11;22.30;99.90
50586;DHT22;36542;51.700;8.846;2023-07-13T08:20:37;22.40;99.90
50586;DHT22;36542;51.700;8.846;2023-07-13T08:23:03;22.70;99.90
50586;DHT22;36542;51.700;8.846;2023-07-13T08:25:29;22.80;99.90
50586;DHT22;36542;51.700;8.846;2023-07-13T08:27:54;22.80;99.90
50586;DHT22;36542;51.700;8.846;2023-07-13T08:30:20;22.10;99.90
50586;DHT22;36542;51.700;8.846;2023-07-13T08:32:45;21.40;99.90
50586;DHT22;36542;51.700;8.846;2023-07-13T08:35:11;21.50;99.90
50586;DHT22;36542;51.700;8.846;2023-07-13T08:37:37;21.70;99.90
50586;DHT22;36542;51.700;8.846;2023-07-13T08:40:02;21.60;99.90
50586;DHT22;36542;51.700;8.846;2023-07-13T08:42:46;20.80;99.90
50586;DHT22;36542;51.700;8.846;2023-07-13T08:45:28;21.10;99.90
50586;DHT22;36542;51.700;8.846;2023-07-13T08:48:09;22.40;99.90
50586;DHT22;36542;51.700;8.846;2023-07-13T08:50:44;23.30;99.90
50586;DHT22;36542;51.700;8.846;2023-07-13T08:53:15;22.80;99.90
50586;DHT22;36542;51.700;8.846;2023-07-13T08:55:41;21.80;99.90
50586;DHT22;36542;51.700;8.846;2023-07-13T08:58:13;21.00;99.90
50586;DHT22;36542;51.700;8.846;2023-07-13T09:01:28;21.20;99.90
50586;DHT22;36542;51.700;8.846;2023-07-13T09:03:47;22.30;99.90
50586;DHT22;36542;51.700;8.846;2023-07-13T09:06:16;22.90;99.90
50586;DHT22;36542;51.700;8.846;2023-07-13T09:08:59;23.40;99.90
50586;DHT22;36542;51.700;8.846;2023-07-13T09:11:59;23.30;99.90
50586;DHT22;36542;51.700;8.846;2023-07-13T09:14:47;22.50;99.90
50586;DHT22;36542;51.700;8.846;2023-07-13T09:17:24;22.40;99.90
50586;DHT22;36542;51.700;8.846;2023-07-13T09:22:46;22.60;99.90
50586;DHT22;36542;51.700;8.846;2023-07-13T09:25:28;23.50;99.90
50586;DHT22;36542;51.700;8.846;2023-07-13T09:27:59;24.20;99.90
50586;DHT22;36542;51.700;8.846;2023-07-13T09:30:40;24.90;99.90
50586;DHT22;36542;51.700;8.846;2023-07-13T09:33:08;24.60;99.90
50586;DHT22;36542;51.700;8.846;2023-07-13T09:35:35;24.50;99.90
50586;DHT22;36542;51.700;8.846;2023-07-13T09:38:12;23.80;99.90
50586;DHT22;36542;51.700;8.846;2023-07-13T09:40:46;23.10;99.90
50586;DHT22;36542;51.700;8.846;2023-07-13T09:43:16;22.30;99.90
50586;DHT22;36542;51.700;8.846;2023-07-13T09:45:45;21.70;99.90
50586;DHT22;36542;51.700;8.846;2023-07-13T09:48:13;21.20;99.90
50586;DHT22;36542;51.700;8.846;2023-07-13T09:50:39;21.00;99.90
50586;DHT22;36542;51.700;8.846;2023-07-13T09:53:15;20.90;99.90
50586;DHT22;36542;51.700;8.846;2023-07-13T09:55:42;20.80;99.90
50586;DHT22;36542;51.700;8.846;2023-07-13T10:00:40;20.40;99.90
50586;DHT22;36542;51.700;8.846;2023-07-13T10:03:17;20.20;99.90
50586;DHT22;36542;51.700;8.846;2023-07-13T10:05:45;21.20;99.90
50586;DHT22;36542;51.700;8.846;2023-07-13T10:08:20;21.80;99.90
50586;DHT22;36542;51.700;8.846;2023-07-13T10:10:46;22.70;99.90
50586;DHT22;36542;51.700;8.846;2023-07-13T10:13:26;23.20;99.90
50586;DHT22;36542;51.700;8.846;2023-07-13T10:15:52;23.50;99.90
50586;DHT22;36542;51.700;8.846;2023-07-13T10:18:19;23.80;99.90
50586;DHT22;36542;51.700;8.846;2023-07-13T10:20:46;24.40;99.90
50586;DHT22;36542;51.700;8.846;2023-07-13T10:23:16;24.70;99.90
50586;DHT22;36542;51.700;8.846;2023-07-13T10:25:46;25.10;98.80
50586;DHT22;36542;51.700;8.846;2023-07-13T10:28:35;24.70;99.00
50586;DHT22;36542;51.700;8.846;2023-07-13T10:31:02;24.70;98.60
50586;DHT22;36542;51.700;8.846;2023-07-13T10:33:31;24.20;98.90
50586;DHT22;36542;51.700;8.846;2023-07-13T10:38:49;24.50;99.10
50586;DHT22;36542;51.700;8.846;2023-07-13T10:41:19;25.20;99.50
50586;DHT22;36542;51.700;8.846;2023-07-13T10:43:48;25.50;98.00
50586;DHT22;36542;51.700;8.846;2023-07-13T10:46:18;25.70;97.30
50586;DHT22;36542;51.700;8.846;2023-07-13T10:48:49;24.90;97.80
50586;DHT22;36542;51.700;8.846;2023-07-13T10:51:18;24.70;98.30
50586;DHT22;36542;51.700;8.846;2023-07-13T10:53:46;24.30;98.20
50586;DHT22;36542;51.700;8.846;2023-07-13T10:56:28;24.50;99.90
50586;DHT22;36542;51.700;8.846;2023-07-13T11:04:45;22.70;99.90
50586;DHT22;36542;51.700;8.846;2023-07-13T11:09:53;22.10;99.90
50586;DHT22;36542;51.700;8.846;2023-07-13T11:20:30;23.80;99.90
50586;DHT22;36542;51.700;8.846;2023-07-13T11:25:37;24.60;98.30
50586;DHT22;36542;51.700;8.846;2023-07-13T11:35:42;25.10;97.60
50586;DHT22;36542;51.700;8.846;2023-07-13T11:38:21;24.50;97.90
50586;DHT22;36542;51.700;8.846;2023-07-13T11:40:50;24.30;98.30
50586;DHT22;36542;51.700;8.846;2023-07-13T11:43:17;23.70;99.80
50586;DHT22;36542;51.700;8.846;2023-07-13T11:45:43;23.60;99.90
50586;DHT22;36542;51.700;8.846;2023-07-13T11:48:21;23.40;99.60
50586;DHT22;36542;51.700;8.846;2023-07-13T11:50:53;24.10;99.90
50586;DHT22;36542;51.700;8.846;2023-07-13T11:53:19;24.60;99.30
50586;DHT22;36542;51.700;8.846;2023-07-13T11:55:45;24.50;98.20
50586;DHT22;36542;51.700;8.846;2023-07-13T11:58:14;23.90;99.00
50586;DHT22;36542;51.700;8.846;2023-07-13T12:00:41;23.50;99.30
50586;DHT22;36542;51.700;8.846;2023-07-13T12:03:07;24.30;99.30
50586;DHT22;36542;51.700;8.846;2023-07-13T12:05:33;24.20;99.30
50586;DHT22;36542;51.700;8.846;2023-07-13T12:07:58;24.60;97.60
50586;DHT22;36542;51.700;8.846;2023-07-13T12:10:27;24.50;97.50
50586;DHT22;36542;51.700;8.846;2023-07-13T12:13:02;24.30;97.90
50586;DHT22;36542;51.700;8.846;2023-07-13T12:15:38;24.20;98.50
50586;DHT22;36542;51.700;8.846;2023-07-13T12:18:15;24.30;98.40
50586;DHT22;36542;51.700;8.846;2023-07-13T12:20:43;23.90;97.20
50586;DHT22;36542;51.700;8.846;2023-07-13T12:23:29;24.00;96.70
50586;DHT22;36542;51.700;8.846;2023-07-13T12:25:56;23.40;98.10
50586;DHT22;36542;51.700;8.846;2023-07-13T12:28:52;23.40;98.80
50586;DHT22;36542;51.700;8.846;2023-07-13T12:31:37;23.20;98.30
50586;DHT22;36542;51.700;8.846;2023-07-13T12:34:07;23.20;98.40
50586;DHT22;36542;51.700;8.846;2023-07-13T12:36:36;24.00;98.50
50586;DHT22;36542;51.700;8.846;2023-07-13T12:39:18;24.00;97.30
50586;DHT22;36542;51.700;8.846;2023-07-13T12:41:45;24.00;96.80
50586;DHT22;36542;51.700;8.846;2023-07-13T12:44:17;23.90;97.50
50586;DHT22;36542;51.700;8.846;2023-07-13T12:46:55;23.40;96.90
50586;DHT22;36542;51.700;8.846;2023-07-13T12:49:27;23.30;98.00
50586;DHT22;36542;51.700;8.846;2023-07-13T12:51:59;22.70;98.80
50586;DHT22;36542;51.700;8.846;2023-07-13T12:54:25;22.70;99.30
50586;DHT22;36542;51.700;8.846;2023-07-13T12:56:53;22.70;99.50
50586;DHT22;36542;51.700;8.846;2023-07-13T12:59:20;22.60;98.70
50586;DHT22;36542;51.700;8.846;2023-07-13T13:01:48;22.30;98.70
50586;DHT22;36542;51.700;8.846;2023-07-13T13:04:14;22.50;99.20
50586;DHT22;36542;51.700;8.846;2023-07-13T13:06:40;22.80;98.70
50586;DHT22;36542;51.700;8.846;2023-07-13T13:09:12;22.90;99.00
50586;DHT22;36542;51.700;8.846;2023-07-13T13:11:38;23.10;99.20
50586;DHT22;36542;51.700;8.846;2023-07-13T13:14:05;23.10;99.50
50586;DHT22;36542;51.700;8.846;2023-07-13T13:16:42;23.20;99.90
50586;DHT22;36542;51.700;8.846;2023-07-13T13:19:20;23.30;99.00
50586;DHT22;36542;51.700;8.846;2023-07-13T13:21:49;23.50;98.50
50586;DHT22;36542;51.700;8.846;2023-07-13T13:24:23;23.40;98.20
50586;DHT22;36542;51.700;8.846;2023-07-13T13:26:50;23.20;99.00
50586;DHT22;36542;51.700;8.846;2023-07-13T13:29:19;23.20;99.30
50586;DHT22;36542;51.700;8.846;2023-07-13T13:31:45;23.10;99.20
50586;DHT22;36542;51.700;8.846;2023-07-13T13:34:16;23.00;99.40
50586;DHT22;36542;51.700;8.846;2023-07-13T13:36:43;22.70;99.70
50586;DHT22;36542;51.700;8.846;2023-07-13T13:39:38;22.30;99.90
50586;DHT22;36542;51.700;8.846;2023-07-13T13:42:04;22.20;99.90
50586;DHT22;36542;51.700;8.846;2023-07-13T13:44:30;22.80;99.90
50586;DHT22;36542;51.700;8.846;2023-07-13T13:46:56;23.30;99.90
50586;DHT22;36542;51.700;8.846;2023-07-13T13:49:24;23.80;99.90
50586;DHT22;36542;51.700;8.846;2023-07-13T13:51:50;24.10;99.40
50586;DHT22;36542;51.700;8.846;2023-07-13T13:54:17;24.10;99.00
50586;DHT22;36542;51.700;8.846;2023-07-13T13:56:44;24.10;99.50
50586;DHT22;36542;51.700;8.846;2023-07-13T13:59:10;24.50;98.80
50586;DHT22;36542;51.700;8.846;2023-07-13T14:01:36;24.60;98.00
50586;DHT22;36542;51.700;8.846;2023-07-13T14:04:03;24.30;97.30
50586;DHT22;36542;51.700;8.846;2023-07-13T14:06:29;24.60;97.30
50586;DHT22;36542;51.700;8.846;2023-07-13T14:08:55;24.70;96.60
50586;DHT22;36542;51.700;8.846;2023-07-13T14:11:21;24.60;96.00
50586;DHT22;36542;51.700;8.846;2023-07-13T14:13:56;24.70;96.10
50586;DHT22;36542;51.700;8.846;2023-07-13T14:16:26;24.50;96.60
50586;DHT22;36542;51.700;8.846;2023-07-13T14:18:53;24.80;96.80
50586;DHT22;36542;51.700;8.846;2023-07-13T14:21:21;25.00;97.10
50586;DHT22;36542;51.700;8.846;2023-07-13T14:23:48;24.40;96.80
50586;DHT22;36542;51.700;8.846;2023-07-13T14:26:15;24.70;96.20
50586;DHT22;36542;51.700;8.846;2023-07-13T14:28:44;24.40;96.00
50586;DHT22;36542;51.700;8.846;2023-07-13T14:31:15;24.90;95.90
50586;DHT22;36542;51.700;8.846;2023-07-13T14:33:41;24.80;94.00
50586;DHT22;36542;51.700;8.846;2023-07-13T14:38:49;24.00;94.70
50586;DHT22;36542;51.700;8.846;2023-07-13T14:41:27;23.80;95.90
50586;DHT22;36542;51.700;8.846;2023-07-13T14:43:52;23.80;95.60
50586;DHT22;36542;51.700;8.846;2023-07-13T14:46:29;23.70;95.30
50586;DHT22;36542;51.700;8.846;2023-07-13T14:49:10;23.80;96.20
50586;DHT22;36542;51.700;8.846;2023-07-13T14:51:38;23.60;95.90
50586;DHT22;36542;51.700;8.846;2023-07-13T14:54:05;23.20;96.10
50586;DHT22;36542;51.700;8.846;2023-07-13T14:56:31;23.20;95.70
50586;DHT22;36542;51.700;8.846;2023-07-13T14:58:57;23.20;95.80
50586;DHT22;36542;51.700;8.846;2023-07-13T15:01:22;23.10;95.90
50586;DHT22;36542;51.700;8.846;2023-07-13T15:03:50;23.10;95.80
50586;DHT22;36542;51.700;8.846;2023-07-13T15:06:17;22.90;95.90
50586;DHT22;36542;51.700;8.846;2023-07-13T15:08:45;22.90;96.20
50586;DHT22;36542;51.700;8.846;2023-07-13T15:11:11;22.80;96.50
50586;DHT22;36542;51.700;8.846;2023-07-13T15:13:38;22.70;96.60
50586;DHT22;36542;51.700;8.846;2023-07-13T15:16:05;22.50;97.40
50586;DHT22;36542;51.700;8.846;2023-07-13T15:18:37;21.30;99.90
50586;DHT22;36542;51.700;8.846;2023-07-13T15:21:09;19.90;99.90
50586;DHT22;36542;51.700;8.846;2023-07-13T15:23:39;19.50;99.90
50586;DHT22;36542;51.700;8.846;2023-07-13T15:26:04;19.00;99.90
50586;DHT22;36542;51.700;8.846;2023-07-13T15:28:32;18.70;99.90
50586;DHT22;36542;51.700;8.846;2023-07-13T15:30:57;18.50;99.90
50586;DHT22;36542;51.700;8.846;2023-07-13T15:33:26;18.10;99.90
50586;DHT22;36542;51.700;8.846;2023-07-13T15:35:53;17.80;99.90
50586;DHT22;36542;51.700;8.846;2023-07-13T15:38:22;17.30;99.90
50586;DHT22;36542;51.700;8.846;2023-07-13T15:40:49;17.00;99.90
50586;DHT22;36542;51.700;8.846;2023-07-13T15:43:16;16.80;99.90
50586;DHT22;36542;51.700;8.846;2023-07-13T15:45:43;16.60;99.90
50586;DHT22;36542;51.700;8.846;2023-07-13T15:48:26;16.40;99.90
50586;DHT22;36542;51.700;8.846;2023-07-13T15:50:54;16.20;99.90
50586;DHT22;36542;51.700;8.846;2023-07-13T15:53:27;16.30;99.90
50586;DHT22;36542;51.700;8.846;2023-07-13T15:55:54;16.20;99.90
50586;DHT22;36542;51.700;8.846;2023-07-13T15:58:20;15.90;99.90
50586;DHT22;36542;51.700;8.846;2023-07-13T16:00:46;15.60;99.90
50586;DHT22;36542;51.700;8.846;2023-07-13T16:03:11;15.60;99.90
50586;DHT22;36542;51.700;8.846;2023-07-13T16:05:38;15.50;99.90
50586;DHT22;36542;51.700;8.846;2023-07-13T16:08:05;15.30;99.90
50586;DHT22;36542;51.700;8.846;2023-07-13T16:10:37;15.10;99.90
50586;DHT22;36542;51.700;8.846;2023-07-13T16:13:15;15.00;99.90
50586;DHT22;36542;51.700;8.846;2023-07-13T16:15:41;15.10;99.90
50586;DHT22;36542;51.700;8.846;2023-07-13T16:18:10;15.20;99.90
50586;DHT22;36542;51.700;8.846;2023-07-13T16:20:37;15.30;99.90